sensor_id;sensor_type;location;lat;lon;timestamp;P1;durP1;ratioP1;P2;durP2;ratioP2
53939;SDS011;39850;43.324;21.916;2023-03-26T00:04:27;8.0;;;7.0;;
53939;SDS011;39850;43.324;21.916;2023-03-26T00:09:10;8.0;;;7.0;;
53939;SDS011;39850;43.324;21.916;2023-03-26T00:13:49;8.0;;;7.0;;
53939;SDS011;39850;43.324;21.916;2023-03-26T00:18:29;8.0;;;7.0;;
53939;SDS011;39850;43.324;21.916;2023-03-26T00:23:07;8.0;;;7.0;;
53939;SDS011;39850;43.324;21.916;2023-03-26T01:00:18;8.0;;;7.0;;
53939;SDS011;39850;43.324;21.916;2023-03-26T01:05:50;8.0;;;7.0;;
53939;SDS011;39850;43.324;21.916;2023-03-26T01:10:28;8.0;;;7.0;;
53939;SDS011;39850;43.324;21.916;2023-03-26T01:15:09;8.0;;;7.0;;
53939;SDS011;39850;43.324;21.916;2023-03-26T01:20:05;8.0;;;7.0;;
53939;SDS011;39850;43.324;21.916;2023-03-26T01:24:47;8.0;;;7.0;;
53939;SDS011;39850;43.324;21.916;2023-03-26T02:28:28;8.0;;;7.0;;
53939;SDS011;39850;43.324;21.916;2023-03-26T02:33:05;8.0;;;7.0;;
53939;SDS011;39850;43.324;21.916;2023-03-26T02:37:42;8.0;;;7.0;;
53939;SDS011;39850;43.324;21.916;2023-03-26T02:42:18;8.0;;;7.0;;
53939;SDS011;39850;43.324;21.916;2023-03-26T02:46:55;8.0;;;7.0;;
53939;SDS011;39850;43.324;21.916;2023-03-26T02:51:33;8.0;;;7.0;;
53939;SDS011;39850;43.324;21.916;2023-03-26T02:56:10;8.0;;;7.0;;
53939;SDS011;39850;43.324;21.916;2023-03-26T05:10:33;11.0;;;10.0;;
53939;SDS011;39850;43.324;21.916;2023-03-26T05:15:15;11.0;;;10.0;;
53939;SDS011;39850;43.324;21.916;2023-03-26T05:19:52;11.0;;;10.0;;
53939;SDS011;39850;43.324;21.916;2023-03-26T05:24:28;11.0;;;10.0;;
53939;SDS011;39850;43.324;21.916;2023-03-26T05:29:05;11.0;;;10.0;;
53939;SDS011;39850;43.324;21.916;2023-03-26T05:33:42;11.0;;;10.0;;
53939;SDS011;39850;43.324;21.916;2023-03-26T06:19:51;12.0;;;11.0;;
53939;SDS011;39850;43.324;21.916;2023-03-26T06:24:27;12.0;;;11.0;;
53939;SDS011;39850;43.324;21.916;2023-03-26T06:29:04;11.0;;;10.0;;
53939;SDS011;39850;43.324;21.916;2023-03-26T06:33:41;11.0;;;10.0;;
53939;SDS011;39850;43.324;21.916;2023-03-26T06:38:18;11.0;;;10.0;;
53939;SDS011;39850;43.324;21.916;2023-03-26T06:42:55;11.0;;;10.0;;
53939;SDS011;39850;43.324;21.916;2023-03-26T06:47:31;10.0;;;10.0;;
53939;SDS011;39850;43.324;21.916;2023-03-26T06:52:08;10.0;;;10.0;;
53939;SDS011;39850;43.324;21.916;2023-03-26T06:56:44;10.0;;;10.0;;
53939;SDS011;39850;43.324;21.916;2023-03-26T07:59:37;8.0;;;7.0;;
53939;SDS011;39850;43.324;21.916;2023-03-26T08:05:10;8.0;;;7.0;;
53939;SDS011;39850;43.324;21.916;2023-03-26T08:10:24;8.0;;;7.0;;
53939;SDS011;39850;43.324;21.916;2023-03-26T08:15:33;8.0;;;7.0;;
53939;SDS011;39850;43.324;21.916;2023-03-26T08:20:49;8.0;;;7.0;;
53939;SDS011;39850;43.324;21.916;2023-03-26T08:26:09;8.0;;;7.0;;
53939;SDS011;39850;43.324;21.916;2023-03-26T09:10:37;8.0;;;6.0;;
53939;SDS011;39850;43.324;21.916;2023-03-26T09:18:30;8.0;;;6.0;;
53939;SDS011;39850;43.324;21.916;2023-03-26T09:24:09;8.0;;;6.0;;
53939;SDS011;39850;43.324;21.916;2023-03-26T09:30:38;8.0;;;6.0;;
53939;SDS011;39850;43.324;21.916;2023-03-26T09:36:45;8.0;;;6.0;;
53939;SDS011;39850;43.324;21.916;2023-03-26T09:41:51;7.0;;;6.0;;
53939;SDS011;39850;43.324;21.916;2023-03-26T09:47:30;7.0;;;6.0;;
53939;SDS011;39850;43.324;21.916;2023-03-26T10:20:53;8.0;;;6.0;;
53939;SDS011;39850;43.324;21.916;2023-03-26T10:26:09;8.0;;;6.0;;
53939;SDS011;39850;43.324;21.916;2023-03-26T10:31:45;8.0;;;6.0;;
53939;SDS011;39850;43.324;21.916;2023-03-26T10:36:51;8.0;;;6.0;;
53939;SDS011;39850;43.324;21.916;2023-03-26T10:42:32;8.0;;;6.0;;
53939;SDS011;39850;43.324;21.916;2023-03-26T11:58:58;7.0;;;6.0;;
53939;SDS011;39850;43.324;21.916;2023-03-26T12:03:39;7.0;;;6.0;;
53939;SDS011;39850;43.324;21.916;2023-03-26T12:08:32;7.0;;;6.0;;
53939;SDS011;39850;43.324;21.916;2023-03-26T12:13:38;7.0;;;6.0;;
53939;SDS011;39850;43.324;21.916;2023-03-26T12:18:27;7.0;;;6.0;;
53939;SDS011;39850;43.324;21.916;2023-03-26T12:23:32;7.0;;;6.0;;
53939;SDS011;39850;43.324;21.916;2023-03-26T12:28:19;7.0;;;6.0;;
53939;SDS011;39850;43.324;21.916;2023-03-26T13:15:05;9.0;;;7.0;;
53939;SDS011;39850;43.324;21.916;2023-03-26T13:20:22;8.0;;;6.0;;
53939;SDS011;39850;43.324;21.916;2023-03-26T13:25:54;8.0;;;6.0;;
53939;SDS011;39850;43.324;21.916;2023-03-26T13:31:23;8.0;;;6.0;;
53939;SDS011;39850;43.324;21.916;2023-03-26T13:36:45;8.0;;;6.0;;
53939;SDS011;39850;43.324;21.916;2023-03-26T13:42:43;7.0;;;6.0;;
53939;SDS011;39850;43.324;21.916;2023-03-26T13:47:49;7.0;;;6.0;;
53939;SDS011;39850;43.324;21.916;2023-03-26T14:23:20;12.0;;;11.0;;
53939;SDS011;39850;43.324;21.916;2023-03-26T14:29:42;10.0;;;10.0;;
53939;SDS011;39850;43.324;21.916;2023-03-26T14:35:27;10.0;;;10.0;;
53939;SDS011;39850;43.324;21.916;2023-03-26T14:42:40;11.0;;;9.0;;
53939;SDS011;39850;43.324;21.916;2023-03-26T14:47:22;11.0;;;9.0;;
53939;SDS011;39850;43.324;21.916;2023-03-26T14:52:15;10.0;;;8.0;;
53939;SDS011;39850;43.324;21.916;2023-03-26T14:58:02;10.0;;;8.0;;
53939;SDS011;39850;43.324;21.916;2023-03-26T15:05:53;11.0;;;9.0;;
53939;SDS011;39850;43.324;21.916;2023-03-26T15:43:13;7.0;;;6.0;;
53939;SDS011;39850;43.324;21.916;2023-03-26T15:48:50;7.0;;;6.0;;
53939;SDS011;39850;43.324;21.916;2023-03-26T15:54:04;8.0;;;6.0;;
53939;SDS011;39850;43.324;21.916;2023-03-26T15:59:28;8.0;;;6.0;;
53939;SDS011;39850;43.324;21.916;2023-03-26T16:04:50;8.0;;;6.0;;
53939;SDS011;39850;43.324;21.916;2023-03-26T16:10:12;8.0;;;6.0;;
53939;SDS011;39850;43.324;21.916;2023-03-26T16:15:30;8.0;;;6.0;;
53939;SDS011;39850;43.324;21.916;2023-03-26T16:20:32;8.0;;;6.0;;
53939;SDS011;39850;43.324;21.916;2023-03-26T16:25:30;8.0;;;6.0;;
53939;SDS011;39850;43.324;21.916;2023-03-26T17:03:15;34.0;;;28.0;;
53939;SDS011;39850;43.324;21.916;2023-03-26T17:08:29;34.0;;;28.0;;
53939;SDS011;39850;43.324;21.916;2023-03-26T17:13:46;26.0;;;22.0;;
53939;SDS011;39850;43.324;21.916;2023-03-26T17:19:00;26.0;;;22.0;;
53939;SDS011;39850;43.324;21.916;2023-03-26T17:24:24;18.0;;;15.0;;
53939;SDS011;39850;43.324;21.916;2023-03-26T17:29:48;17.0;;;14.0;;
53939;SDS011;39850;43.324;21.916;2023-03-26T17:35:00;17.0;;;14.0;;
53939;SDS011;39850;43.324;21.916;2023-03-26T17:40:51;16.0;;;14.0;;
53939;SDS011;39850;43.324;21.916;2023-03-26T17:45:37;16.0;;;14.0;;
53939;SDS011;39850;43.324;21.916;2023-03-26T18:20:27;21.0;;;18.0;;
53939;SDS011;39850;43.324;21.916;2023-03-26T18:25:21;21.0;;;18.0;;
53939;SDS011;39850;43.324;21.916;2023-03-26T18:30:19;24.0;;;22.0;;
53939;SDS011;39850;43.324;21.916;2023-03-26T18:35:16;24.0;;;22.0;;
53939;SDS011;39850;43.324;21.916;2023-03-26T18:40:08;28.0;;;23.0;;
53939;SDS011;39850;43.324;21.916;2023-03-26T18:44:53;28.0;;;23.0;;
53939;SDS011;39850;43.324;21.916;2023-03-26T18:49:34;28.0;;;23.0;;
53939;SDS011;39850;43.324;21.916;2023-03-26T18:54:19;28.0;;;24.0;;
53939;SDS011;39850;43.324;21.916;2023-03-26T18:59:02;28.0;;;24.0;;
53939;SDS011;39850;43.324;21.916;2023-03-26T19:04:10;28.0;;;23.0;;
53939;SDS011;39850;43.324;21.916;2023-03-26T19:08:49;28.0;;;23.0;;
53939;SDS011;39850;43.324;21.916;2023-03-26T19:42:01;23.0;;;19.0;;
53939;SDS011;39850;43.324;21.916;2023-03-26T19:46:47;23.0;;;19.0;;
53939;SDS011;39850;43.324;21.916;2023-03-26T19:51:36;24.0;;;20.0;;
53939;SDS011;39850;43.324;21.916;2023-03-26T19:56:14;24.0;;;20.0;;
53939;SDS011;39850;43.324;21.916;2023-03-26T20:00:52;25.0;;;22.0;;
53939;SDS011;39850;43.324;21.916;2023-03-26T20:05:34;25.0;;;22.0;;
53939;SDS011;39850;43.324;21.916;2023-03-26T20:10:11;28.0;;;24.0;;
53939;SDS011;39850;43.324;21.916;2023-03-26T20:14:48;28.0;;;24.0;;
53939;SDS011;39850;43.324;21.916;2023-03-26T20:19:24;28.0;;;24.0;;
53939;SDS011;39850;43.324;21.916;2023-03-26T20:24:00;31.0;;;27.0;;
53939;SDS011;39850;43.324;21.916;2023-03-26T20:28:37;31.0;;;27.0;;
53939;SDS011;39850;43.324;21.916;2023-03-26T21:01:01;19.0;;;17.0;;
53939;SDS011;39850;43.324;21.916;2023-03-26T21:05:39;19.0;;;17.0;;
53939;SDS011;39850;43.324;21.916;2023-03-26T21:10:23;20.0;;;17.0;;
53939;SDS011;39850;43.324;21.916;2023-03-26T21:15:10;20.0;;;17.0;;
53939;SDS011;39850;43.324;21.916;2023-03-26T21:19:50;20.0;;;17.0;;
53939;SDS011;39850;43.324;21.916;2023-03-26T21:25:14;19.0;;;17.0;;
53939;SDS011;39850;43.324;21.916;2023-03-26T21:30:16;20.0;;;16.0;;
53939;SDS011;39850;43.324;21.916;2023-03-26T21:34:55;20.0;;;16.0;;
53939;SDS011;39850;43.324;21.916;2023-03-26T21:39:36;20.0;;;16.0;;
53939;SDS011;39850;43.324;21.916;2023-03-26T21:44:16;19.0;;;15.0;;
53939;SDS011;39850;43.324;21.916;2023-03-26T21:48:56;19.0;;;15.0;;
53939;SDS011;39850;43.324;21.916;2023-03-26T22:22:42;12.0;;;10.0;;
53939;SDS011;39850;43.324;21.916;2023-03-26T22:27:18;12.0;;;10.0;;
53939;SDS011;39850;43.324;21.916;2023-03-26T22:31:55;12.0;;;10.0;;
53939;SDS011;39850;43.324;21.916;2023-03-26T22:36:32;12.0;;;10.0;;
53939;SDS011;39850;43.324;21.916;2023-03-26T22:41:10;13.0;;;11.0;;
53939;SDS011;39850;43.324;21.916;2023-03-26T22:45:49;13.0;;;11.0;;
53939;SDS011;39850;43.324;21.916;2023-03-26T22:50:27;14.0;;;12.0;;
53939;SDS011;39850;43.324;21.916;2023-03-26T22:55:07;14.0;;;12.0;;
53939;SDS011;39850;43.324;21.916;2023-03-26T22:59:46;14.0;;;12.0;;
53939;SDS011;39850;43.324;21.916;2023-03-26T23:04:23;16.0;;;14.0;;
53939;SDS011;39850;43.324;21.916;2023-03-26T23:09:00;16.0;;;14.0;;
53939;SDS011;39850;43.324;21.916;2023-03-26T23:41:20;14.0;;;11.0;;
53939;SDS011;39850;43.324;21.916;2023-03-26T23:45:58;14.0;;;11.0;;
53939;SDS011;39850;43.324;21.916;2023-03-26T23:50:35;14.0;;;11.0;;
53939;SDS011;39850;43.324;21.916;2023-03-26T23:55:12;13.0;;;10.0;;
53939;SDS011;39850;43.324;21.916;2023-03-26T23:59:49;13.0;;;10.0;;
